Time;durP1;ratioP1;P1;durP2;ratioP2;P2;SDS_P1;SDS_P2;PMS_P1;PMS_P2;Temp;Humidity;BMP_temperature;BMP_pressure;BME280_temperature;BME280_humidity;BME280_pressure;Samples;Min_cycle;Max_cycle;Signal;HPM_P1;HPM_P2
2022/03/03 00:02:35;;;;;;;;;63.50;50.25;;;;;13.30;53.76;100970.88;6347902;22;46337;-81
2022/03/03 00:05:01;;;;;;;;;61.25;48.50;;;;;13.06;54.14;100974.22;6321880;22;45301;-82
2022/03/03 00:07:26;;;;;;;;;67.00;52.00;;;;;13.05;54.32;100971.53;6294102;22;45704;-82
2022/03/03 00:09:51;;;;;;;;;64.75;52.75;;;;;12.99;54.22;100964.41;6351747;22;45690;-80
2022/03/03 00:12:17;;;;;;;;;67.25;54.00;;;;;13.00;54.58;100967.06;6351010;22;45276;-82
2022/03/03 00:15:34;;;;;;;;;66.50;54.25;;;;;13.20;54.17;100969.00;6319773;22;45359;-80
2022/03/03 00:18:01;;;;;;;;;66.75;54.25;;;;;12.97;54.59;100972.41;6349648;22;45545;-82
2022/03/03 00:20:26;;;;;;;;;69.75;54.75;;;;;12.97;54.92;100974.19;6349839;22;44802;-79
2022/03/03 00:22:52;;;;;;;;;70.75;55.75;;;;;12.93;55.04;100967.91;6317960;22;47839;-80
2022/03/03 00:25:17;;;;;;;;;61.50;49.50;;;;;12.93;54.90;100967.91;6348341;22;44763;-80
2022/03/03 00:28:33;;;;;;;;;66.75;54.50;;;;;13.11;54.82;100975.19;6321067;22;44777;-82
2022/03/03 00:30:59;;;;;;;;;65.50;52.50;;;;;12.84;54.89;100964.28;6346214;22;45521;-82
2022/03/03 00:33:24;;;;;;;;;67.50;53.50;;;;;12.82;55.03;100966.91;6347263;22;46657;-81
2022/03/03 00:35:50;;;;;;;;;64.50;52.50;;;;;12.90;55.13;100975.00;6318454;22;44802;-81
2022/03/03 00:38:16;;;;;;;;;59.50;49.25;;;;;12.89;55.16;100974.09;6320689;22;45472;-80
2022/03/03 00:40:41;;;;;;;;;71.25;54.25;;;;;12.85;55.26;100979.41;6319735;22;45341;-81
2022/03/03 00:43:08;;;;;;;;;62.00;50.00;;;;;12.83;55.40;100976.72;6349392;22;45124;-80
2022/03/03 00:45:35;;;;;;;;;65.50;51.75;;;;;12.88;55.35;100979.44;6321393;22;45384;-81
2022/03/03 00:48:01;;;;;;;;;65.75;52.75;;;;;12.84;55.69;100985.63;6321559;22;45349;-80
2022/03/03 00:50:27;;;;;;;;;65.25;52.25;;;;;12.85;55.53;100977.63;6321726;22;45359;-83
2022/03/03 00:52:53;;;;;;;;;67.00;54.00;;;;;12.85;55.42;100982.09;6319275;22;46975;-81
2022/03/03 00:55:18;;;;;;;;;70.00;54.50;;;;;12.85;55.46;100990.97;6320738;22;45332;-83
2022/03/03 00:57:44;;;;;;;;;64.75;51.50;;;;;12.87;55.66;100980.31;6349539;22;45234;-82
2022/03/03 01:00:10;;;;;;;;;66.25;54.00;;;;;12.88;55.97;100977.66;6319663;22;45339;-80
2022/03/03 01:02:35;;;;;;;;;67.00;52.75;;;;;12.88;55.41;100982.97;6318408;22;46750;-81
2022/03/03 01:05:02;;;;;;;;;63.00;49.00;;;;;12.89;55.72;100976.78;6346726;22;45344;-82
2022/03/03 01:07:28;;;;;;;;;67.25;53.75;;;;;12.88;55.49;100971.41;6346303;22;45384;-80
2022/03/03 01:09:53;;;;;;;;;66.50;51.00;;;;;12.89;55.25;100974.09;6345563;22;45250;-81
2022/03/03 01:12:19;;;;;;;;;67.00;53.25;;;;;12.92;55.63;100982.13;6345041;22;45380;-80
2022/03/03 01:14:44;;;;;;;;;66.00;52.25;;;;;12.86;55.66;100974.06;6345955;22;45317;-81
2022/03/03 01:17:09;;;;;;;;;63.50;50.75;;;;;12.82;55.91;100966.91;6347161;22;45930;-82
2022/03/03 01:19:35;;;;;;;;;62.00;50.25;;;;;12.84;55.92;100981.16;6345800;22;45421;-81
2022/03/03 01:22:01;;;;;;;;;62.25;50.00;;;;;12.79;56.24;100970.47;6344649;22;47990;-82
2022/03/03 01:24:33;;;;;;;;;65.50;54.25;;;;;12.76;56.23;100967.75;6346961;22;45214;-82
2022/03/03 01:26:58;;;;;;;;;59.25;49.25;;;;;12.73;56.50;100969.53;6347630;22;45372;-81
2022/03/03 01:29:25;;;;;;;;;64.50;51.25;;;;;12.75;56.61;100962.44;6347435;22;45382;-83
2022/03/03 01:31:50;;;;;;;;;59.25;48.50;;;;;12.73;56.93;100972.19;6338795;22;47957;-81
2022/03/03 01:34:17;;;;;;;;;58.50;48.00;;;;;12.78;57.01;100967.78;6316862;22;45910;-83
2022/03/03 01:36:43;;;;;;;;;61.00;50.75;;;;;12.80;57.07;100968.69;6315449;22;45437;-83
2022/03/03 01:39:09;;;;;;;;;63.75;50.75;;;;;12.87;56.81;100970.53;6316912;22;45307;-81
2022/03/03 01:41:36;;;;;;;;;62.25;50.50;;;;;12.82;56.77;100961.56;6316708;22;46104;-81
2022/03/03 01:44:03;;;;;;;;;67.25;54.50;;;;;12.86;56.70;100963.38;6315364;22;45383;-80
2022/03/03 01:46:29;;;;;;;;;60.25;49.00;;;;;12.85;56.69;100953.63;6317482;22;45308;-82
2022/03/03 01:48:54;;;;;;;;;63.50;51.00;;;;;12.86;57.06;100946.50;6314655;22;45347;-81
2022/03/03 01:51:20;;;;;;;;;62.25;50.75;;;;;12.93;56.88;100953.69;6316059;22;45446;-80
2022/03/03 01:53:46;;;;;;;;;59.75;50.00;;;;;13.09;57.01;100949.31;6315968;22;45380;-81
2022/03/03 01:56:12;;;;;;;;;63.50;51.50;;;;;13.00;56.73;100945.69;6315098;22;45363;-80
2022/03/03 01:58:39;;;;;;;;;58.50;47.75;;;;;13.06;56.92;100946.66;6316127;22;45354;-82
2022/03/03 02:01:05;;;;;;;;;66.00;49.75;;;;;13.13;56.63;100952.03;6315609;22;45174;-83
2022/03/03 02:03:31;;;;;;;;;57.00;45.25;;;;;13.15;57.35;100944.94;6314809;22;45422;-81
2022/03/03 02:05:56;;;;;;;;;53.50;43.00;;;;;13.23;58.10;100953.00;6314792;22;45264;-81
2022/03/03 02:08:23;;;;;;;;;60.25;47.50;;;;;13.29;58.07;100942.41;6315083;22;45488;-82
2022/03/03 02:10:51;;;;;;;;;58.25;47.75;;;;;13.48;58.56;100950.50;6315203;22;45323;-79
2022/03/03 02:13:17;;;;;;;;;56.00;45.75;;;;;13.45;58.64;100950.47;6315616;22;45392;-81
2022/03/03 02:15:54;;;;;;;;;56.25;47.25;;;;;13.62;57.71;100943.47;6315009;22;45404;-82
2022/03/03 02:18:20;;;;;;;;;58.50;46.25;;;;;13.51;58.25;100958.53;6316047;22;45403;-81
2022/03/03 02:20:46;;;;;;;;;58.00;47.00;;;;;13.53;57.89;100956.75;6315426;22;46222;-81
2022/03/03 02:23:12;;;;;;;;;54.25;44.25;;;;;13.45;58.09;100942.47;6315836;22;45377;-81
2022/03/03 02:25:38;;;;;;;;;58.00;47.00;;;;;13.40;58.15;100932.66;6316326;22;45337;-80
2022/03/03 02:28:04;;;;;;;;;55.75;44.75;;;;;13.47;58.70;100946.97;6315696;22;45265;-81
2022/03/03 02:30:29;;;;;;;;;56.50;47.00;;;;;13.48;58.78;100943.38;6317544;22;45337;-81
2022/03/03 02:32:55;;;;;;;;;60.50;46.75;;;;;13.49;59.00;100938.91;6342929;22;44979;-82
2022/03/03 02:38:42;;;;;;;;;61.00;48.25;;;;;13.50;59.46;100936.25;6349336;22;45353;-82
2022/03/03 02:41:08;;;;;;;;;52.50;45.25;;;;;13.50;59.50;100932.72;6320648;22;46390;-81
2022/03/03 02:43:33;;;;;;;;;55.25;44.00;;;;;13.47;60.17;100930.00;6320887;22;45384;-81
2022/03/03 02:46:01;;;;;;;;;59.50;48.00;;;;;13.54;59.97;100926.50;6347340;22;45345;-84
2022/03/03 02:48:27;;;;;;;;;61.50;46.50;;;;;13.42;60.76;100918.41;6347538;22;45800;-82
2022/03/03 02:50:52;;;;;;;;;53.50;44.00;;;;;13.43;61.57;100923.75;6348021;22;45457;-80
2022/03/03 02:53:18;;;;;;;;;46.75;40.25;;;;;13.36;62.01;100922.84;6320367;22;45458;-79
2022/03/03 02:55:43;;;;;;;;;56.75;45.25;;;;;13.34;62.37;100916.59;6318486;22;45366;-79
2022/03/03 02:58:10;;;;;;;;;51.50;42.00;;;;;13.33;61.93;100917.50;6318838;22;45815;-79
2022/03/03 03:00:42;;;;;;;;;56.75;45.75;;;;;13.33;61.97;100908.56;6346219;22;45943;-80
2022/03/03 03:03:09;;;;;;;;;57.00;42.00;;;;;13.33;62.30;100905.88;6345459;22;44857;-81
2022/03/03 03:05:36;;;;;;;;;56.50;47.00;;;;;13.37;62.73;100908.59;6347177;22;45337;-81
2022/03/03 03:08:04;;;;;;;;;48.67;42.00;;;;;13.48;62.17;100905.97;6348795;22;45338;-82
2022/03/03 03:10:29;;;;;;;;;55.33;45.33;;;;;13.41;62.35;100904.16;6321989;22;47941;-82
2022/03/03 03:12:55;;;;;;;;;55.50;44.00;;;;;13.52;62.10;100902.44;6320869;22;45765;-80
2022/03/03 03:15:20;;;;;;;;;54.50;44.50;;;;;13.43;62.33;100898.81;6319742;22;45432;-82
2022/03/03 03:17:46;;;;;;;;;53.25;45.00;;;;;13.38;61.87;100878.31;6348180;22;45259;-82
2022/03/03 03:20:12;;;;;;;;;56.00;45.25;;;;;13.46;62.27;100906.88;6319924;22;47504;-81
2022/03/03 03:22:38;;;;;;;;;57.75;44.25;;;;;13.45;62.44;100892.59;6319460;22;45474;-80
2022/03/03 03:25:07;;;;;;;;;47.00;42.00;;;;;13.40;62.16;100881.88;6319832;22;45499;-82
2022/03/03 03:27:35;;;;;;;;;56.50;46.25;;;;;13.50;62.69;100893.50;6346522;22;45413;-82
2022/03/03 03:30:00;;;;;;;;;52.00;44.00;;;;;13.31;62.52;100879.19;6348275;22;46456;-80
2022/03/03 03:32:26;;;;;;;;;56.25;44.00;;;;;13.40;62.80;100889.91;6314424;22;45371;-82
2022/03/03 03:34:51;;;;;;;;;59.25;49.75;;;;;13.41;63.12;100893.47;6317652;22;45757;-82
2022/03/03 03:37:17;;;;;;;;;57.25;46.75;;;;;13.38;63.01;100878.31;6316367;22;45798;-80
2022/03/03 03:40:06;;;;;;;;;60.25;46.00;;;;;13.57;62.90;100879.31;6343017;22;46655;-82
2022/03/03 03:42:31;;;;;;;;;55.00;44.25;;;;;13.35;63.66;100878.31;6315933;22;44743;-82
2022/03/03 03:44:57;;;;;;;;;53.50;43.50;;;;;13.30;64.24;100874.72;6315034;22;45301;-81
2022/03/03 03:47:22;;;;;;;;;54.25;45.00;;;;;13.18;64.94;100859.47;6312737;22;45351;-80
2022/03/03 03:49:48;;;;;;;;;56.25;45.25;;;;;13.19;65.37;100871.97;6312403;22;46784;-79
2022/03/03 03:52:14;;;;;;;;;53.75;45.25;;;;;13.23;65.60;100856.84;6313400;22;45410;-80
2022/03/03 03:54:40;;;;;;;;;53.75;40.75;;;;;13.13;65.74;100863.03;6314484;22;45459;-82
2022/03/03 03:57:05;;;;;;;;;53.00;42.00;;;;;13.11;66.33;100868.38;6311552;22;45384;-82
2022/03/03 03:59:31;;;;;;;;;55.67;42.33;;;;;13.11;66.09;100857.69;6314689;22;46562;-81
2022/03/03 04:01:59;;;;;;;;;49.00;41.00;;;;;13.20;66.28;100856.81;6314630;22;45847;-80
2022/03/03 04:04:24;;;;;;;;;58.00;44.67;;;;;13.13;67.05;100863.03;6317878;22;45570;-81
2022/03/03 04:06:49;;;;;;;;;51.75;42.75;;;;;13.12;67.51;100848.78;6314727;22;45746;-83
2022/03/03 04:09:15;;;;;;;;;53.33;41.67;;;;;13.11;68.17;100862.09;6313389;22;47864;-82
2022/03/03 04:11:41;;;;;;;;;38.00;35.33;;;;;13.06;68.79;100858.53;6316716;22;45328;-84
2022/03/03 04:14:06;;;;;;;;;56.33;41.67;;;;;13.08;68.66;100854.97;6315582;22;45626;-83
2022/03/03 04:16:32;;;;;;;;;55.67;42.00;;;;;13.05;68.90;100841.63;6314738;22;45747;-81
2022/03/03 04:18:57;;;;;;;;;48.33;41.33;;;;;13.09;68.07;100853.19;6312826;22;47356;-81
2022/03/03 04:21:23;;;;;;;;;51.00;41.67;;;;;13.08;68.95;100849.63;6312506;22;45696;-82
2022/03/03 04:23:48;;;;;;;;;53.00;42.00;;;;;13.01;68.08;100840.72;6314065;22;45215;-83
2022/03/03 04:26:14;;;;;;;;;50.33;41.00;;;;;13.09;67.67;100835.41;6314261;22;45381;-83
2022/03/03 04:28:41;;;;;;;;;57.33;46.00;;;;;13.25;67.66;100833.72;6314428;22;47140;-82
2022/03/03 04:31:06;;;;;;;;;52.33;43.33;;;;;13.27;67.44;100833.69;6314401;22;45398;-80
2022/03/03 04:33:32;;;;;;;;;53.00;43.33;;;;;13.31;67.58;100827.53;6345237;22;45316;-80
2022/03/03 04:35:58;;;;;;;;;47.33;40.67;;;;;13.35;67.53;100830.22;6349004;22;45527;-82
2022/03/03 04:38:24;;;;;;;;;54.33;43.00;;;;;13.43;67.22;100824.91;6320999;22;47036;-83
2022/03/03 04:40:50;;;;;;;;;47.67;41.33;;;;;13.50;67.27;100824.03;6348770;22;45333;-82
2022/03/03 04:43:15;;;;;;;;;50.67;42.67;;;;;13.53;66.96;100820.47;6347166;22;45386;-82
2022/03/03 04:45:42;;;;;;;;;52.00;40.33;;;;;13.60;67.22;100820.50;6348208;22;45403;-82
2022/03/03 04:48:08;;;;;;;;;44.33;39.00;;;;;13.56;67.07;100817.84;6321239;22;46910;-81
2022/03/03 04:50:34;;;;;;;;;45.67;40.00;;;;;13.48;67.85;100808.91;6348916;22;45392;-81
2022/03/03 04:53:00;;;;;;;;;52.00;42.00;;;;;13.44;67.51;100817.78;6319705;22;45320;-80
2022/03/03 04:55:25;;;;;;;;;44.00;41.00;;;;;13.37;68.59;100807.09;6349394;22;45799;-81
2022/03/03 04:57:52;;;;;;;;;46.00;39.67;;;;;13.46;69.68;100806.22;6321423;22;48029;-82
2022/03/03 05:00:18;;;;;;;;;51.33;41.67;;;;;13.25;70.21;100807.00;6320856;22;45399;-80
2022/03/03 05:02:44;;;;;;;;;41.33;35.67;;;;;13.21;70.38;100805.22;6320048;22;44864;-81
2022/03/03 05:05:09;;;;;;;;;49.33;40.00;;;;;13.20;70.24;100800.75;6349253;22;45675;-80
2022/03/03 05:07:35;;;;;;;;;50.00;40.33;;;;;13.10;71.23;100799.81;6321512;22;46821;-81
2022/03/03 05:10:01;;;;;;;;;45.67;37.33;;;;;13.12;70.47;100806.03;6349710;22;45343;-80
2022/03/03 05:12:26;;;;;;;;;47.67;40.33;;;;;13.09;70.90;100805.13;6347896;22;45269;-80
2022/03/03 05:14:52;;;;;;;;;50.33;41.33;;;;;13.06;71.68;100799.78;6350138;22;45367;-80
2022/03/03 05:17:19;;;;;;;;;45.67;39.33;;;;;13.16;71.40;100801.63;6319537;22;46540;-81
2022/03/03 05:19:51;;;;;;;;;49.67;40.67;;;;;13.18;70.71;100805.19;6348782;22;45701;-81
2022/03/03 05:22:16;;;;;;;;;49.33;39.00;;;;;12.97;71.37;100796.19;6320090;22;45364;-82
2022/03/03 05:24:42;;;;;;;;;47.67;41.00;;;;;13.01;71.97;100798.00;6322803;22;45715;-80
2022/03/03 05:27:08;;;;;;;;;46.67;39.67;;;;;13.04;70.86;100798.91;6322173;22;46859;-80
2022/03/03 05:29:34;;;;;;;;;46.67;39.00;;;;;13.12;72.05;100811.38;6348618;22;45286;-81
2022/03/03 05:32:00;;;;;;;;;52.67;42.00;;;;;13.18;71.77;100815.88;6315129;22;44777;-81
2022/03/03 05:34:26;;;;;;;;;45.67;39.00;;;;;13.12;71.35;100813.16;6319029;22;45345;-81
2022/03/03 05:36:52;;;;;;;;;50.67;41.00;;;;;13.11;71.17;100819.38;6317379;22;45348;-80
2022/03/03 05:39:18;;;;;;;;;49.67;42.00;;;;;13.11;71.60;100814.97;6317117;22;45399;-81
2022/03/03 05:41:44;;;;;;;;;48.00;37.67;;;;;13.14;71.74;100819.41;6316522;22;45385;-80
2022/03/03 05:44:13;;;;;;;;;50.00;40.33;;;;;13.22;72.04;100806.97;6316696;22;45400;-81
2022/03/03 05:46:42;;;;;;;;;51.33;41.33;;;;;13.21;71.09;100806.09;6317570;22;45391;-82
2022/03/03 05:49:08;;;;;;;;;52.00;44.00;;;;;13.20;70.98;100814.97;6313493;22;45337;-81
2022/03/03 05:51:35;;;;;;;;;45.67;39.00;;;;;13.27;71.03;100812.34;6316553;22;45548;-80
2022/03/03 05:54:00;;;;;;;;;53.67;43.67;;;;;13.37;70.71;100812.44;6314625;22;45292;-81
2022/03/03 05:56:31;;;;;;;;;52.33;40.67;;;;;13.55;70.66;100803.59;6317715;22;46399;-81
2022/03/03 05:59:05;;;;;;;;;51.00;43.00;;;;;13.68;69.81;100812.53;6315991;22;45680;-81
2022/03/03 06:01:31;;;;;;;;;43.33;39.67;;;;;13.58;69.80;100802.69;6316582;22;45352;-81
2022/03/03 06:04:00;;;;;;;;;47.33;39.67;;;;;13.68;69.91;100806.28;6317953;22;45566;-80
2022/03/03 06:06:28;;;;;;;;;48.00;41.00;;;;;13.74;69.51;100807.19;6315928;22;47077;-81
2022/03/03 06:09:11;;;;;;;;;45.67;39.33;;;;;13.82;69.68;100803.66;6316377;22;45356;-82
2022/03/03 06:11:45;;;;;;;;;44.33;37.67;;;;;13.75;69.16;100794.72;6318202;22;45313;-80
2022/03/03 06:14:12;;;;;;;;;50.00;41.00;;;;;13.75;69.54;100797.38;6318373;22;45385;-82
2022/03/03 06:16:39;;;;;;;;;45.67;39.00;;;;;13.73;70.19;100796.50;6317116;22;45625;-82
2022/03/03 06:19:05;;;;;;;;;56.00;44.00;;;;;13.53;70.79;100796.44;6319058;22;45375;-81
2022/03/03 06:21:30;;;;;;;;;48.00;40.00;;;;;13.48;70.75;100803.56;6320309;22;45467;-80
2022/03/03 06:23:56;;;;;;;;;45.67;39.00;;;;;13.48;70.81;100808.91;6318979;22;45435;-82
2022/03/03 06:26:22;;;;;;;;;59.25;47.00;;;;;13.50;70.50;100813.34;6315993;22;47026;-82
2022/03/03 06:28:49;;;;;;;;;55.33;45.67;;;;;13.56;70.40;100810.69;6319114;22;45375;-82
2022/03/03 06:31:15;;;;;;;;;51.50;42.75;;;;;13.45;70.48;100809.75;6320138;22;45788;-82
2022/03/03 06:33:41;;;;;;;;;55.00;43.00;;;;;13.48;70.17;100804.44;6317845;22;45314;-83
2022/03/03 06:36:08;;;;;;;;;52.00;44.25;;;;;13.58;70.12;100810.72;6318699;22;45663;-81
2022/03/03 06:38:34;;;;;;;;;44.67;39.33;;;;;13.62;70.24;100817.84;6318600;22;45229;-82
2022/03/03 06:41:02;;;;;;;;;48.67;40.00;;;;;13.65;70.70;100807.16;6318565;22;45802;-82
2022/03/03 06:43:29;;;;;;;;;47.33;38.33;;;;;13.46;70.73;100802.66;6319237;22;45404;-80
2022/03/03 06:45:56;;;;;;;;;48.00;39.00;;;;;13.49;71.06;100810.66;6319056;22;45855;-81
2022/03/03 06:48:22;;;;;;;;;46.33;39.33;;;;;13.50;70.46;100823.16;6318148;22;45363;-82
2022/03/03 06:50:52;;;;;;;;;47.33;40.33;;;;;13.60;70.91;100812.50;6317757;22;45585;-81
2022/03/03 06:53:25;;;;;;;;;47.00;41.67;;;;;13.61;70.50;100810.72;6316276;22;45479;-82
2022/03/03 06:55:54;;;;;;;;;45.33;37.67;;;;;13.58;70.59;100810.72;6318415;22;46125;-81
2022/03/03 06:58:24;;;;;;;;;47.67;37.33;;;;;13.60;70.62;100819.63;6311363;22;45719;-80
2022/03/03 07:00:52;;;;;;;;;41.67;38.33;;;;;13.63;70.59;100826.75;6313129;22;45277;-80
2022/03/03 07:03:26;;;;;;;;;51.67;41.33;;;;;13.63;71.01;100824.97;6323155;22;45405;-80
2022/03/03 07:05:52;;;;;;;;;47.67;39.33;;;;;13.49;71.09;100824.03;6313705;22;45320;-80
2022/03/03 07:08:20;;;;;;;;;50.67;41.33;;;;;13.53;71.68;100828.50;6316819;22;45371;-81
2022/03/03 07:10:49;;;;;;;;;52.33;41.00;;;;;13.52;71.86;100827.63;6318616;22;44705;-80
2022/03/03 07:13:18;;;;;;;;;51.33;39.33;;;;;13.53;72.73;100833.84;6321947;22;45406;-81
2022/03/03 07:16:34;;;;;;;;;48.00;40.33;;;;;13.55;72.71;100832.97;6321398;22;45339;-82
2022/03/03 07:19:03;;;;;;;;;51.33;44.00;;;;;13.46;72.35;100832.06;6320616;22;45348;-82
2022/03/03 07:21:58;;;;;;;;;47.33;39.33;;;;;13.52;72.46;100832.06;6318534;22;44912;-81
2022/03/03 07:24:28;;;;;;;;;50.00;42.67;;;;;13.54;72.54;100824.97;6319082;22;45339;-82
2022/03/03 07:27:00;;;;;;;;;51.33;41.67;;;;;13.54;72.72;100830.31;6317965;22;47042;-82
2022/03/03 07:29:30;;;;;;;;;52.00;41.33;;;;;13.56;72.49;100823.19;6317998;22;45517;-82
2022/03/03 07:31:58;;;;;;;;;45.00;37.67;;;;;13.57;72.80;100827.63;6321490;22;45368;-81
2022/03/03 07:34:34;;;;;;;;;43.67;38.00;;;;;13.69;71.91;100829.44;6296515;22;45370;-82
2022/03/03 07:37:30;;;;;;;;;48.67;40.33;;;;;13.74;71.87;100825.91;6321874;22;47068;-81
2022/03/03 07:40:05;;;;;;;;;37.67;34.33;;;;;13.74;71.84;100828.56;6320218;22;45901;-82
2022/03/03 07:42:30;;;;;;;;;49.00;41.00;;;;;13.63;71.55;100829.44;6322530;22;45362;-82
2022/03/03 07:44:56;;;;;;;;;52.67;42.67;;;;;13.65;71.17;100823.19;6320907;22;44847;-82
2022/03/03 07:47:21;;;;;;;;;55.00;42.33;;;;;13.70;70.68;100826.78;6350514;22;45475;-82
2022/03/03 07:49:47;;;;;;;;;52.00;45.00;;;;;13.72;70.59;100825.00;6322217;22;45395;-82
2022/03/03 07:52:14;;;;;;;;;61.00;47.25;;;;;13.81;70.39;100824.13;6350795;22;45746;-82
2022/03/03 07:54:39;;;;;;;;;55.67;45.33;;;;;13.72;70.53;100833.03;6351482;22;45267;-82
2022/03/03 07:57:13;;;;;;;;;55.75;45.75;;;;;13.87;70.17;100829.47;6348507;22;46787;-82
2022/03/03 07:59:43;;;;;;;;;56.50;47.00;;;;;13.80;70.37;100831.25;6353750;22;45394;-82
2022/03/03 08:02:18;;;;;;;;;57.25;45.00;;;;;13.85;69.95;100819.69;6350184;22;45385;-82
2022/03/03 08:04:44;;;;;;;;;64.25;50.00;;;;;13.84;70.22;100834.84;6352363;22;45797;-83
2022/03/03 08:07:16;;;;;;;;;61.25;48.75;;;;;13.99;70.04;100825.94;6323956;22;46563;-81
2022/03/03 08:09:43;;;;;;;;;52.67;43.00;;;;;13.77;70.02;100806.28;6351549;22;45220;-82
2022/03/03 08:12:15;;;;;;;;;54.75;44.25;;;;;14.04;69.69;100824.19;6355380;22;45641;-82
2022/03/03 08:14:40;;;;;;;;;58.75;45.75;;;;;13.92;69.44;100813.47;6327271;22;45379;-83
2022/03/03 08:17:08;;;;;;;;;62.00;48.25;;;;;14.03;69.83;100814.34;6354338;22;45249;-82
2022/03/03 08:19:34;;;;;;;;;56.75;45.75;;;;;14.05;69.92;100817.03;6325666;22;45285;-82
2022/03/03 08:21:59;;;;;;;;;57.75;48.00;;;;;14.03;69.71;100811.69;6354543;22;45392;-81
2022/03/03 08:24:27;;;;;;;;;57.50;47.25;;;;;14.20;69.55;100817.94;6324252;22;45181;-82
2022/03/03 08:26:58;;;;;;;;;52.00;44.50;;;;;14.27;69.37;100816.16;6352487;22;48126;-82
2022/03/03 08:29:24;;;;;;;;;52.25;44.25;;;;;14.20;69.20;100822.41;6332300;22;44721;-82
2022/03/03 08:35:15;;;;;;;;;62.50;48.25;;;;;14.46;68.63;100818.81;6298473;22;45789;-82
2022/03/03 08:38:01;;;;;;;;;56.33;45.67;;;;;14.40;68.92;100809.00;6303282;22;47212;-82
2022/03/03 08:40:27;;;;;;;;;54.00;44.33;;;;;14.33;69.00;100816.16;6319473;22;45033;-82
2022/03/03 08:42:59;;;;;;;;;53.00;43.67;;;;;14.38;68.85;100800.09;6318124;22;44810;-82
2022/03/03 08:48:49;;;;;;;;;54.67;44.00;;;;;14.58;68.76;100826.88;6319444;22;45446;-82
2022/03/03 08:51:19;;;;;;;;;52.00;43.67;;;;;14.56;68.71;100826.91;6318026;22;45531;-82
2022/03/03 08:53:47;;;;;;;;;54.00;43.33;;;;;14.62;68.32;100830.44;6344725;22;45376;-83
2022/03/03 08:56:13;;;;;;;;;50.67;42.00;;;;;14.72;68.12;100829.53;6317852;22;45277;-83
2022/03/03 08:58:41;;;;;;;;;49.33;41.67;;;;;14.83;67.87;100822.38;6317972;22;48181;-83
2022/03/03 09:01:06;;;;;;;;;53.33;45.00;;;;;14.84;67.94;100831.31;6320683;22;45245;-81
2022/03/03 09:03:32;;;;;;;;;52.33;41.00;;;;;15.00;67.62;100836.59;6322664;22;45405;-82
2022/03/03 09:06:01;;;;;;;;;51.33;42.67;;;;;15.11;67.33;100841.97;6320577;22;44848;-84
2022/03/03 09:08:28;;;;;;;;;56.00;45.33;;;;;15.16;66.94;100836.56;6289816;22;46839;-82
2022/03/03 09:10:58;;;;;;;;;55.00;46.00;;;;;15.33;66.66;100841.88;6263751;22;45271;-85
2022/03/03 09:13:24;;;;;;;;;54.67;43.33;;;;;15.08;66.49;100814.28;6287497;22;45843;-84
2022/03/03 09:15:51;;;;;;;;;52.67;43.67;;;;;15.31;65.88;100847.25;6289488;22;45377;-84
2022/03/03 09:18:16;;;;;;;;;52.00;41.33;;;;;15.19;66.01;100839.25;6288795;22;45678;-83
2022/03/03 09:20:42;;;;;;;;;57.67;44.67;;;;;15.20;65.83;100838.34;6285593;22;44807;-81
2022/03/03 09:23:11;;;;;;;;;54.67;44.33;;;;;15.17;65.95;100808.91;6289048;22;45344;-81
2022/03/03 09:25:41;;;;;;;;;53.00;42.75;;;;;15.33;66.06;100839.19;6293090;22;45435;-81
2022/03/03 09:28:07;;;;;;;;;51.25;43.00;;;;;15.32;66.30;100840.09;6294811;22;46628;-83
2022/03/03 09:30:34;;;;;;;;;53.00;44.00;;;;;15.27;65.98;100831.16;6317903;22;45127;-82
2022/03/03 09:33:12;;;;;;;;;52.33;41.67;;;;;15.65;65.80;100830.09;6268496;22;45327;-82
2022/03/03 09:35:41;;;;;;;;;55.75;46.75;;;;;15.67;65.03;100831.00;6238375;22;44835;-82
2022/03/03 09:38:07;;;;;;;;;52.33;45.33;;;;;15.62;64.49;100825.66;6239466;22;45422;-83
2022/03/03 09:40:33;;;;;;;;;57.00;46.33;;;;;15.43;64.60;100786.44;6238103;22;44824;-84
2022/03/03 09:43:09;;;;;;;;;48.50;42.00;;;;;15.65;64.96;100801.50;6237484;22;45373;-83
2022/03/03 09:45:36;;;;;;;;;53.25;44.50;;;;;15.96;64.68;100828.19;6232248;22;45446;-79
2022/03/03 09:48:09;;;;;;;;;54.00;42.33;;;;;16.22;63.88;100825.31;6234533;22;45649;-84
2022/03/03 09:50:40;;;;;;;;;58.25;47.25;;;;;16.34;63.52;100826.97;6234563;22;45402;-83
2022/03/03 09:53:11;;;;;;;;;59.00;46.00;;;;;16.43;62.95;100821.53;6233919;22;44827;-83
2022/03/03 09:55:42;;;;;;;;;51.33;44.00;;;;;16.43;63.00;100823.34;6261406;22;45374;-83
2022/03/03 09:58:08;;;;;;;;;60.25;46.25;;;;;16.38;62.87;100831.41;6210677;22;45384;-83
2022/03/03 10:00:37;;;;;;;;;56.50;45.50;;;;;16.51;62.66;100821.47;6235541;22;44800;-86
2022/03/03 10:03:10;;;;;;;;;52.00;43.50;;;;;16.70;62.65;100831.13;6259677;22;44880;-82
2022/03/03 10:05:42;;;;;;;;;56.25;47.25;;;;;16.75;62.28;100831.09;6233898;22;45440;-83
2022/03/03 10:08:13;;;;;;;;;60.25;45.00;;;;;16.88;61.89;100822.03;6260592;22;46074;-83
2022/03/03 10:17:36;;;;;;;;;53.00;43.00;;;;;17.05;60.44;100821.88;6263490;22;45282;-83
2022/03/03 10:20:04;;;;;;;;;52.67;42.67;;;;;16.89;60.57;100818.44;6235438;22;47658;-82
2022/03/03 10:22:57;;;;;;;;;55.00;46.00;;;;;17.08;59.62;100829.00;6235106;22;44750;-82
2022/03/03 10:25:33;;;;;;;;;52.33;43.00;;;;;16.98;60.58;100821.03;6237109;22;44839;-84
2022/03/03 10:28:12;;;;;;;;;49.67;40.33;;;;;17.09;60.45;100823.59;6211858;22;44857;-84
2022/03/03 10:30:51;;;;;;;;;61.33;46.33;;;;;17.10;59.42;100806.56;6260216;22;46759;-84
2022/03/03 10:33:20;;;;;;;;;53.00;42.33;;;;;17.03;60.20;100812.94;6240086;22;45660;-85
2022/03/03 10:36:15;;;;;;;;;53.50;43.75;;;;;17.26;59.91;100827.88;6290113;22;45271;-86
2022/03/03 10:39:03;;;;;;;;;56.67;45.67;;;;;17.16;59.83;100778.72;6291125;22;45055;-85
2022/03/03 10:41:48;;;;;;;;;57.33;42.67;;;;;17.37;59.36;100786.53;6292221;22;46264;-84
2022/03/03 10:44:17;;;;;;;;;57.00;44.67;;;;;17.45;58.69;100805.25;6266759;22;45310;-83
2022/03/03 10:47:12;;;;;;;;;51.67;43.00;;;;;17.70;59.02;100819.25;6295074;22;45416;-85
2022/03/03 10:49:41;;;;;;;;;54.00;44.00;;;;;17.70;58.27;100821.94;6295937;22;45187;-84
2022/03/03 10:52:40;;;;;;;;;51.67;43.67;;;;;17.68;58.55;100823.75;6296192;22;46762;-84
2022/03/03 10:55:14;;;;;;;;;53.00;43.33;;;;;17.70;58.23;100813.88;6294256;22;44704;-83
2022/03/03 10:57:45;;;;;;;;;50.33;39.33;;;;;17.74;58.75;100815.59;6294876;22;45338;-84
2022/03/03 11:00:35;;;;;;;;;42.33;39.00;;;;;17.79;57.36;100797.59;6295194;22;45374;-83
2022/03/03 11:03:35;;;;;;;;;44.67;37.00;;;;;17.74;57.82;100812.03;6295592;22;45311;-85
2022/03/03 11:06:02;;;;;;;;;51.00;43.00;;;;;17.40;57.95;100780.22;6294654;22;45743;-84
2022/03/03 11:08:33;;;;;;;;;46.00;35.00;;;;;17.54;57.92;100788.09;6292890;22;45619;-84
2022/03/03 11:11:04;;;;;;;;;49.67;42.00;;;;;17.74;57.15;100818.28;6290055;22;44808;-84
2022/03/03 11:13:30;;;;;;;;;49.67;40.67;;;;;17.62;57.12;100809.50;6269984;22;45853;-85
2022/03/03 11:16:00;;;;;;;;;53.00;40.00;;;;;17.71;57.87;100809.38;6293715;22;44890;-85
2022/03/03 11:18:26;;;;;;;;;44.00;38.67;;;;;17.53;57.07;100778.22;6295395;22;45411;-84
2022/03/03 11:25:11;;;;;;;;;49.33;40.67;;;;;18.06;56.91;100800.81;6109364;23;45455;-85
2022/03/03 11:45:27;;;;;;;;;49.67;40.00;;;;;18.32;56.02;100769.84;6302768;22;45457;-83
2022/03/03 11:48:14;;;;;;;;;49.67;38.33;;;;;18.45;54.54;100782.19;6295760;22;46929;-84
2022/03/03 11:50:41;;;;;;;;;41.33;36.67;;;;;18.31;54.90;100790.50;6268072;22;45346;-83
2022/03/03 11:53:18;;;;;;;;;51.67;40.33;;;;;18.46;54.63;100792.06;6295698;22;45332;-83
2022/03/03 11:56:07;;;;;;;;;47.33;39.67;;;;;18.42;53.43;100790.34;6296947;22;45332;-84
2022/03/03 11:58:42;;;;;;;;;45.67;38.33;;;;;18.34;54.92;100790.47;6293035;22;45148;-83